sensor_id;sensor_type;location;lat;lon;timestamp;pressure;altitude;pressure_sealevel;temperature;humidity
57656;BME280;43482;53.334;6.744;2022-12-07T00:01:12;101530.03;;;4.04;100.00
57656;BME280;43482;53.334;6.744;2022-12-07T00:03:40;101524.03;;;4.02;100.00
57656;BME280;43482;53.334;6.744;2022-12-07T00:06:07;101493.63;;;3.87;100.00
57656;BME280;43482;53.334;6.744;2022-12-07T00:08:34;101513.41;;;3.91;100.00
57656;BME280;43482;53.334;6.744;2022-12-07T00:11:08;101493.81;;;3.84;100.00
57656;BME280;43482;53.334;6.744;2022-12-07T00:13:35;101516.50;;;3.98;100.00
57656;BME280;43482;53.334;6.744;2022-12-07T00:18:31;101508.94;;;3.93;100.00
57656;BME280;43482;53.334;6.744;2022-12-07T00:21:01;101502.28;;;3.87;100.00
57656;BME280;43482;53.334;6.744;2022-12-07T00:23:29;101505.75;;;3.88;100.00
57656;BME280;43482;53.334;6.744;2022-12-07T00:25:54;101527.97;;;3.95;100.00
57656;BME280;43482;53.334;6.744;2022-12-07T00:28:20;101522.72;;;3.95;100.00
57656;BME280;43482;53.334;6.744;2022-12-07T00:30:45;101556.47;;;4.14;100.00
57656;BME280;43482;53.334;6.744;2022-12-07T00:33:10;101539.75;;;4.17;100.00
57656;BME280;43482;53.334;6.744;2022-12-07T00:35:36;101533.88;;;4.27;100.00
57656;BME280;43482;53.334;6.744;2022-12-07T00:38:03;101513.81;;;4.28;100.00
57656;BME280;43482;53.334;6.744;2022-12-07T00:40:29;101523.69;;;4.37;100.00
57656;BME280;43482;53.334;6.744;2022-12-07T00:42:54;101500.84;;;4.26;100.00
57656;BME280;43482;53.334;6.744;2022-12-07T00:45:20;101517.56;;;4.38;100.00
57656;BME280;43482;53.334;6.744;2022-12-07T00:47:45;101529.59;;;4.41;100.00
57656;BME280;43482;53.334;6.744;2022-12-07T00:50:10;101546.31;;;4.38;100.00
57656;BME280;43482;53.334;6.744;2022-12-07T00:52:36;101537.34;;;4.28;100.00
57656;BME280;43482;53.334;6.744;2022-12-07T00:55:01;101549.19;;;4.33;100.00
57656;BME280;43482;53.334;6.744;2022-12-07T00:57:27;101506.63;;;4.17;100.00
57656;BME280;43482;53.334;6.744;2022-12-07T00:59:53;101527.91;;;4.40;100.00
57656;BME280;43482;53.334;6.744;2022-12-07T01:02:21;101535.94;;;4.51;100.00
57656;BME280;43482;53.334;6.744;2022-12-07T01:04:46;101535.84;;;4.52;100.00
57656;BME280;43482;53.334;6.744;2022-12-07T01:07:11;101532.31;;;4.53;100.00
57656;BME280;43482;53.334;6.744;2022-12-07T01:09:37;101525.84;;;4.59;100.00
57656;BME280;43482;53.334;6.744;2022-12-07T01:12:02;101521.47;;;4.60;100.00
57656;BME280;43482;53.334;6.744;2022-12-07T01:14:28;101516.78;;;4.65;100.00
57656;BME280;43482;53.334;6.744;2022-12-07T01:16:53;101515.75;;;4.67;100.00
57656;BME280;43482;53.334;6.744;2022-12-07T01:19:18;101510.72;;;4.64;100.00
57656;BME280;43482;53.334;6.744;2022-12-07T01:21:44;101484.03;;;4.45;100.00
57656;BME280;43482;53.334;6.744;2022-12-07T01:24:10;101508.66;;;4.55;100.00
57656;BME280;43482;53.334;6.744;2022-12-07T01:26:36;101487.56;;;4.44;100.00
57656;BME280;43482;53.334;6.744;2022-12-07T01:29:01;101478.91;;;4.29;100.00
57656;BME280;43482;53.334;6.744;2022-12-07T01:31:28;101483.59;;;4.38;100.00
57656;BME280;43482;53.334;6.744;2022-12-07T01:33:56;101501.09;;;4.50;100.00
57656;BME280;43482;53.334;6.744;2022-12-07T01:38:54;101488.97;;;4.35;100.00
57656;BME280;43482;53.334;6.744;2022-12-07T01:41:22;101525.66;;;4.48;100.00
57656;BME280;43482;53.334;6.744;2022-12-07T01:44:17;101533.22;;;4.52;100.00
57656;BME280;43482;53.334;6.744;2022-12-07T01:46:45;101496.28;;;4.30;100.00
57656;BME280;43482;53.334;6.744;2022-12-07T01:49:16;101531.84;;;4.47;100.00
57656;BME280;43482;53.334;6.744;2022-12-07T01:51:43;101522.13;;;4.49;100.00
57656;BME280;43482;53.334;6.744;2022-12-07T01:54:11;101509.50;;;4.41;100.00
57656;BME280;43482;53.334;6.744;2022-12-07T01:56:40;101506.06;;;4.41;100.00
57656;BME280;43482;53.334;6.744;2022-12-07T01:59:08;101510.25;;;4.43;100.00
57656;BME280;43482;53.334;6.744;2022-12-07T02:01:33;101531.72;;;4.48;100.00
57656;BME280;43482;53.334;6.744;2022-12-07T02:03:58;101509.50;;;4.41;100.00
57656;BME280;43482;53.334;6.744;2022-12-07T02:06:25;101523.78;;;4.50;100.00
57656;BME280;43482;53.334;6.744;2022-12-07T02:08:51;101515.28;;;4.46;100.00
57656;BME280;43482;53.334;6.744;2022-12-07T02:11:17;101484.31;;;4.26;100.00
57656;BME280;43482;53.334;6.744;2022-12-07T02:13:44;101483.56;;;4.24;100.00
57656;BME280;43482;53.334;6.744;2022-12-07T02:30:17;101494.56;;;4.00;100.00
57656;BME280;43482;53.334;6.744;2022-12-07T02:35:30;101514.75;;;4.12;100.00
57656;BME280;43482;53.334;6.744;2022-12-07T02:40:51;101526.84;;;4.13;100.00
57656;BME280;43482;53.334;6.744;2022-12-07T02:43:30;101509.69;;;3.95;100.00
57656;BME280;43482;53.334;6.744;2022-12-07T02:46:05;101494.09;;;3.94;100.00
57656;BME280;43482;53.334;6.744;2022-12-07T02:48:33;101508.00;;;4.08;100.00
57656;BME280;43482;53.334;6.744;2022-12-07T02:50:59;101502.13;;;4.05;100.00
57656;BME280;43482;53.334;6.744;2022-12-07T02:53:44;101504.47;;;4.09;100.00
57656;BME280;43482;53.334;6.744;2022-12-07T03:02:05;101492.91;;;4.28;100.00
57656;BME280;43482;53.334;6.744;2022-12-07T03:10:09;101470.97;;;4.30;100.00
57656;BME280;43482;53.334;6.744;2022-12-07T03:15:40;101494.41;;;4.32;100.00
57656;BME280;43482;53.334;6.744;2022-12-07T03:18:09;101494.78;;;4.26;100.00
57656;BME280;43482;53.334;6.744;2022-12-07T03:20:37;101475.28;;;4.17;100.00
57656;BME280;43482;53.334;6.744;2022-12-07T03:23:05;101491.97;;;4.29;100.00
57656;BME280;43482;53.334;6.744;2022-12-07T03:25:35;101484.53;;;4.23;100.00
57656;BME280;43482;53.334;6.744;2022-12-07T03:28:05;101491.63;;;4.21;100.00
57656;BME280;43482;53.334;6.744;2022-12-07T03:30:49;101488.25;;;4.19;100.00
57656;BME280;43482;53.334;6.744;2022-12-07T03:33:24;101483.31;;;4.14;100.00
57656;BME280;43482;53.334;6.744;2022-12-07T03:36:08;101503.94;;;4.19;100.00
57656;BME280;43482;53.334;6.744;2022-12-07T03:38:46;101496.63;;;4.24;100.00
57656;BME280;43482;53.334;6.744;2022-12-07T03:41:23;101458.47;;;4.21;100.00
57656;BME280;43482;53.334;6.744;2022-12-07T03:43:49;101451.75;;;4.17;100.00
57656;BME280;43482;53.334;6.744;2022-12-07T03:46:20;101472.66;;;4.31;100.00
57656;BME280;43482;53.334;6.744;2022-12-07T03:48:57;101463.22;;;4.29;100.00
57656;BME280;43482;53.334;6.744;2022-12-07T03:54:26;101470.13;;;4.16;100.00
57656;BME280;43482;53.334;6.744;2022-12-07T03:56:55;101465.03;;;4.14;100.00
57656;BME280;43482;53.334;6.744;2022-12-07T03:59:23;101438.34;;;3.95;100.00
57656;BME280;43482;53.334;6.744;2022-12-07T04:01:55;101455.31;;;4.02;100.00
57656;BME280;43482;53.334;6.744;2022-12-07T04:04:22;101461.56;;;3.99;100.00
57656;BME280;43482;53.334;6.744;2022-12-07T04:06:48;101444.56;;;3.78;100.00
57656;BME280;43482;53.334;6.744;2022-12-07T04:09:14;101459.94;;;3.82;100.00
57656;BME280;43482;53.334;6.744;2022-12-07T04:11:39;101464.50;;;3.79;100.00
57656;BME280;43482;53.334;6.744;2022-12-07T04:14:05;101458.06;;;3.70;100.00
57656;BME280;43482;53.334;6.744;2022-12-07T04:19:15;101449.38;;;3.55;100.00
57656;BME280;43482;53.334;6.744;2022-12-07T04:21:41;101469.88;;;3.61;100.00
57656;BME280;43482;53.334;6.744;2022-12-07T04:24:06;101452.50;;;3.46;100.00
57656;BME280;43482;53.334;6.744;2022-12-07T04:26:31;101472.69;;;3.58;100.00
57656;BME280;43482;53.334;6.744;2022-12-07T04:28:57;101467.81;;;3.52;100.00
57656;BME280;43482;53.334;6.744;2022-12-07T04:31:22;101475.56;;;3.54;100.00
57656;BME280;43482;53.334;6.744;2022-12-07T04:33:48;101484.06;;;3.57;100.00
57656;BME280;43482;53.334;6.744;2022-12-07T04:36:14;101475.97;;;3.62;100.00
57656;BME280;43482;53.334;6.744;2022-12-07T04:38:39;101444.09;;;3.41;100.00
57656;BME280;43482;53.334;6.744;2022-12-07T04:41:09;101464.63;;;3.47;100.00
57656;BME280;43482;53.334;6.744;2022-12-07T04:43:35;101477.75;;;3.76;100.00
57656;BME280;43482;53.334;6.744;2022-12-07T04:46:01;101461.53;;;3.70;100.00
57656;BME280;43482;53.334;6.744;2022-12-07T04:48:27;101483.66;;;3.94;100.00
57656;BME280;43482;53.334;6.744;2022-12-07T04:50:53;101478.25;;;3.97;100.00
57656;BME280;43482;53.334;6.744;2022-12-07T04:53:18;101470.31;;;3.98;100.00
57656;BME280;43482;53.334;6.744;2022-12-07T04:55:45;101459.69;;;4.01;100.00
57656;BME280;43482;53.334;6.744;2022-12-07T04:58:11;101440.63;;;3.85;100.00
57656;BME280;43482;53.334;6.744;2022-12-07T05:00:37;101450.63;;;3.92;100.00
57656;BME280;43482;53.334;6.744;2022-12-07T05:03:02;101430.38;;;3.82;100.00
57656;BME280;43482;53.334;6.744;2022-12-07T05:05:27;101451.84;;;3.87;100.00
57656;BME280;43482;53.334;6.744;2022-12-07T05:07:53;101425.34;;;3.64;100.00
57656;BME280;43482;53.334;6.744;2022-12-07T05:10:19;101434.56;;;3.70;100.00
57656;BME280;43482;53.334;6.744;2022-12-07T05:12:44;101449.50;;;3.82;100.00
57656;BME280;43482;53.334;6.744;2022-12-07T05:15:10;101426.56;;;3.73;100.00
57656;BME280;43482;53.334;6.744;2022-12-07T05:17:36;101421.50;;;3.70;100.00
57656;BME280;43482;53.334;6.744;2022-12-07T05:20:01;101433.16;;;3.79;100.00
57656;BME280;43482;53.334;6.744;2022-12-07T05:22:27;101429.09;;;3.75;100.00
57656;BME280;43482;53.334;6.744;2022-12-07T05:24:54;101400.78;;;3.53;100.00
57656;BME280;43482;53.334;6.744;2022-12-07T05:27:20;101423.91;;;3.59;100.00
57656;BME280;43482;53.334;6.744;2022-12-07T05:29:45;101434.47;;;3.57;100.00
57656;BME280;43482;53.334;6.744;2022-12-07T05:32:10;101436.50;;;3.52;100.00
57656;BME280;43482;53.334;6.744;2022-12-07T05:34:36;101410.81;;;3.30;100.00
57656;BME280;43482;53.334;6.744;2022-12-07T05:37:02;101433.00;;;3.37;100.00
57656;BME280;43482;53.334;6.744;2022-12-07T05:39:27;101410.31;;;3.23;100.00
57656;BME280;43482;53.334;6.744;2022-12-07T05:41:52;101417.97;;;3.26;100.00
57656;BME280;43482;53.334;6.744;2022-12-07T05:44:36;101434.22;;;3.32;100.00
57656;BME280;43482;53.334;6.744;2022-12-07T05:47:01;101412.72;;;3.12;100.00
57656;BME280;43482;53.334;6.744;2022-12-07T05:49:27;101435.09;;;3.16;100.00
57656;BME280;43482;53.334;6.744;2022-12-07T05:51:52;101407.97;;;2.88;100.00
57656;BME280;43482;53.334;6.744;2022-12-07T05:54:18;101406.88;;;2.93;100.00
57656;BME280;43482;53.334;6.744;2022-12-07T05:56:43;101419.47;;;3.00;100.00
57656;BME280;43482;53.334;6.744;2022-12-07T05:59:09;101439.97;;;3.06;100.00
57656;BME280;43482;53.334;6.744;2022-12-07T06:01:50;101439.91;;;3.08;100.00
57656;BME280;43482;53.334;6.744;2022-12-07T06:04:17;101441.34;;;2.98;100.00
57656;BME280;43482;53.334;6.744;2022-12-07T06:06:42;101455.63;;;3.06;100.00
57656;BME280;43482;53.334;6.744;2022-12-07T06:09:08;101453.63;;;3.12;100.00
57656;BME280;43482;53.334;6.744;2022-12-07T06:11:33;101421.84;;;3.05;100.00
57656;BME280;43482;53.334;6.744;2022-12-07T06:14:17;101447.81;;;3.37;100.00
57656;BME280;43482;53.334;6.744;2022-12-07T06:16:43;101447.75;;;3.53;100.00
57656;BME280;43482;53.334;6.744;2022-12-07T06:19:08;101437.81;;;3.59;100.00
57656;BME280;43482;53.334;6.744;2022-12-07T06:21:33;101442.66;;;3.65;100.00
57656;BME280;43482;53.334;6.744;2022-12-07T06:23:59;101444.44;;;3.65;100.00
57656;BME280;43482;53.334;6.744;2022-12-07T06:26:24;101444.53;;;3.63;100.00
57656;BME280;43482;53.334;6.744;2022-12-07T06:28:50;101441.84;;;3.65;100.00
57656;BME280;43482;53.334;6.744;2022-12-07T06:31:15;101441.00;;;3.64;100.00
57656;BME280;43482;53.334;6.744;2022-12-07T06:33:41;101423.34;;;3.54;100.00
57656;BME280;43482;53.334;6.744;2022-12-07T06:36:07;101417.66;;;3.47;100.00
57656;BME280;43482;53.334;6.744;2022-12-07T06:38:32;101447.88;;;3.65;100.00
57656;BME280;43482;53.334;6.744;2022-12-07T06:40:58;101443.88;;;3.60;100.00
57656;BME280;43482;53.334;6.744;2022-12-07T06:43:23;101420.63;;;3.41;100.00
57656;BME280;43482;53.334;6.744;2022-12-07T06:45:49;101422.56;;;3.37;100.00
57656;BME280;43482;53.334;6.744;2022-12-07T06:48:14;101426.78;;;3.40;100.00
57656;BME280;43482;53.334;6.744;2022-12-07T06:50:40;101432.91;;;3.39;100.00
57656;BME280;43482;53.334;6.744;2022-12-07T06:53:05;101403.53;;;3.21;100.00
57656;BME280;43482;53.334;6.744;2022-12-07T06:55:30;101434.03;;;3.35;100.00
57656;BME280;43482;53.334;6.744;2022-12-07T06:57:56;101405.47;;;3.17;100.00
57656;BME280;43482;53.334;6.744;2022-12-07T07:00:21;101427.84;;;3.21;100.00
57656;BME280;43482;53.334;6.744;2022-12-07T07:02:47;101404.13;;;3.10;100.00
57656;BME280;43482;53.334;6.744;2022-12-07T07:05:12;101441.44;;;3.26;100.00
57656;BME280;43482;53.334;6.744;2022-12-07T07:07:38;101418.09;;;3.09;100.00
57656;BME280;43482;53.334;6.744;2022-12-07T07:10:03;101430.97;;;3.12;100.00
57656;BME280;43482;53.334;6.744;2022-12-07T07:12:29;101437.69;;;3.16;100.00
57656;BME280;43482;53.334;6.744;2022-12-07T07:14:54;101422.41;;;3.10;100.00
57656;BME280;43482;53.334;6.744;2022-12-07T07:17:20;101411.56;;;3.02;100.00
57656;BME280;43482;53.334;6.744;2022-12-07T07:19:46;101452.91;;;3.24;100.00
57656;BME280;43482;53.334;6.744;2022-12-07T07:22:11;101430.03;;;3.13;100.00
57656;BME280;43482;53.334;6.744;2022-12-07T07:24:37;101426.31;;;3.17;100.00
57656;BME280;43482;53.334;6.744;2022-12-07T07:27:02;101436.41;;;3.23;100.00
57656;BME280;43482;53.334;6.744;2022-12-07T07:29:27;101444.78;;;3.44;100.00
57656;BME280;43482;53.334;6.744;2022-12-07T07:31:53;101436.00;;;3.45;100.00
57656;BME280;43482;53.334;6.744;2022-12-07T07:34:18;101446.16;;;3.50;100.00
57656;BME280;43482;53.334;6.744;2022-12-07T07:36:43;101432.56;;;3.45;100.00
57656;BME280;43482;53.334;6.744;2022-12-07T07:39:10;101445.81;;;3.56;100.00
57656;BME280;43482;53.334;6.744;2022-12-07T07:41:37;101426.78;;;3.40;100.00
57656;BME280;43482;53.334;6.744;2022-12-07T07:44:03;101453.47;;;3.59;100.00
57656;BME280;43482;53.334;6.744;2022-12-07T07:46:28;101435.56;;;3.53;100.00
57656;BME280;43482;53.334;6.744;2022-12-07T07:48:53;101451.72;;;3.60;100.00
57656;BME280;43482;53.334;6.744;2022-12-07T07:51:19;101421.03;;;3.49;100.00
57656;BME280;43482;53.334;6.744;2022-12-07T07:53:44;101435.56;;;3.53;100.00
57656;BME280;43482;53.334;6.744;2022-12-07T07:56:09;101434.28;;;3.60;100.00
57656;BME280;43482;53.334;6.744;2022-12-07T07:58:35;101437.00;;;3.73;100.00
57656;BME280;43482;53.334;6.744;2022-12-07T08:01:07;101451.75;;;3.88;100.00
57656;BME280;43482;53.334;6.744;2022-12-07T08:03:34;101447.84;;;3.96;100.00
57656;BME280;43482;53.334;6.744;2022-12-07T08:05:59;101447.56;;;4.00;100.00
57656;BME280;43482;53.334;6.744;2022-12-07T08:08:25;101435.59;;;3.96;100.00
57656;BME280;43482;53.334;6.744;2022-12-07T08:10:50;101423.84;;;3.89;100.00
57656;BME280;43482;53.334;6.744;2022-12-07T08:13:16;101419.00;;;3.83;100.00
57656;BME280;43482;53.334;6.744;2022-12-07T08:15:46;101445.22;;;3.96;100.00
57656;BME280;43482;53.334;6.744;2022-12-07T08:18:13;101453.91;;;4.10;100.00
57656;BME280;43482;53.334;6.744;2022-12-07T08:20:40;101432.63;;;3.88;100.00
57656;BME280;43482;53.334;6.744;2022-12-07T08:23:06;101459.50;;;4.19;100.00
57656;BME280;43482;53.334;6.744;2022-12-07T08:25:33;101464.44;;;4.23;100.00
57656;BME280;43482;53.334;6.744;2022-12-07T08:27:58;101448.69;;;4.10;100.00
57656;BME280;43482;53.334;6.744;2022-12-07T08:30:25;101477.91;;;4.31;100.00
57656;BME280;43482;53.334;6.744;2022-12-07T08:32:50;101444.03;;;4.01;100.00
57656;BME280;43482;53.334;6.744;2022-12-07T08:35:16;101483.66;;;4.22;100.00
57656;BME280;43482;53.334;6.744;2022-12-07T08:37:42;101463.78;;;4.20;100.00
57656;BME280;43482;53.334;6.744;2022-12-07T08:40:09;101475.28;;;4.17;100.00
57656;BME280;43482;53.334;6.744;2022-12-07T08:42:35;101467.16;;;4.22;100.00
57656;BME280;43482;53.334;6.744;2022-12-07T08:45:11;101455.78;;;4.23;100.00
57656;BME280;43482;53.334;6.744;2022-12-07T08:47:39;101461.28;;;4.47;100.00
57656;BME280;43482;53.334;6.744;2022-12-07T08:50:06;101463.06;;;4.73;100.00
57656;BME280;43482;53.334;6.744;2022-12-07T08:52:34;101439.97;;;4.94;100.00
57656;BME280;43482;53.334;6.744;2022-12-07T08:55:00;101457.19;;;5.24;100.00
57656;BME280;43482;53.334;6.744;2022-12-07T08:57:27;101429.09;;;5.41;100.00
57656;BME280;43482;53.334;6.744;2022-12-07T08:59:53;101437.81;;;5.80;100.00
57656;BME280;43482;53.334;6.744;2022-12-07T09:02:19;101456.69;;;6.23;100.00
57656;BME280;43482;53.334;6.744;2022-12-07T09:04:44;101395.28;;;5.89;100.00
57656;BME280;43482;53.334;6.744;2022-12-07T09:07:10;101400.28;;;6.17;100.00
57656;BME280;43482;53.334;6.744;2022-12-07T09:09:35;101439.09;;;7.34;100.00
57656;BME280;43482;53.334;6.744;2022-12-07T09:12:00;101436.22;;;7.95;100.00
57656;BME280;43482;53.334;6.744;2022-12-07T09:14:26;101449.75;;;8.47;100.00
57656;BME280;43482;53.334;6.744;2022-12-07T09:16:51;101414.38;;;8.83;100.00
57656;BME280;43482;53.334;6.744;2022-12-07T09:19:17;101439.94;;;8.93;100.00
57656;BME280;43482;53.334;6.744;2022-12-07T09:21:42;101428.69;;;9.02;100.00
57656;BME280;43482;53.334;6.744;2022-12-07T09:24:07;101441.63;;;9.68;100.00
57656;BME280;43482;53.334;6.744;2022-12-07T09:26:34;101453.06;;;9.78;100.00
57656;BME280;43482;53.334;6.744;2022-12-07T09:29:00;101464.50;;;9.46;100.00
57656;BME280;43482;53.334;6.744;2022-12-07T09:31:26;101457.25;;;9.06;100.00
57656;BME280;43482;53.334;6.744;2022-12-07T09:33:59;101453.06;;;8.60;100.00
57656;BME280;43482;53.334;6.744;2022-12-07T09:36:26;101450.41;;;8.38;100.00
57656;BME280;43482;53.334;6.744;2022-12-07T09:38:52;101462.75;;;8.71;100.00
57656;BME280;43482;53.334;6.744;2022-12-07T09:41:18;101450.84;;;8.88;100.00
57656;BME280;43482;53.334;6.744;2022-12-07T09:43:44;101448.53;;;9.27;100.00
57656;BME280;43482;53.334;6.744;2022-12-07T09:46:14;101458.53;;;10.17;100.00
57656;BME280;43482;53.334;6.744;2022-12-07T09:48:42;101421.47;;;10.59;100.00
57656;BME280;43482;53.334;6.744;2022-12-07T09:51:20;101449.00;;;10.26;100.00
57656;BME280;43482;53.334;6.744;2022-12-07T09:53:46;101427.50;;;9.69;100.00
57656;BME280;43482;53.334;6.744;2022-12-07T09:56:13;101419.59;;;9.48;100.00
57656;BME280;43482;53.334;6.744;2022-12-07T09:58:40;101460.28;;;9.76;100.00
57656;BME280;43482;53.334;6.744;2022-12-07T10:03:36;101449.25;;;9.08;100.00
57656;BME280;43482;53.334;6.744;2022-12-07T10:06:04;101435.75;;;8.90;100.00
57656;BME280;43482;53.334;6.744;2022-12-07T10:08:31;101435.47;;;9.37;100.00
57656;BME280;43482;53.334;6.744;2022-12-07T10:10:57;101471.66;;;10.07;100.00
57656;BME280;43482;53.334;6.744;2022-12-07T10:13:36;101467.91;;;10.72;100.00
57656;BME280;43482;53.334;6.744;2022-12-07T10:16:02;101466.59;;;11.45;100.00
57656;BME280;43482;53.334;6.744;2022-12-07T10:18:38;101468.16;;;12.05;100.00
57656;BME280;43482;53.334;6.744;2022-12-07T10:21:14;101462.56;;;12.08;98.17
57656;BME280;43482;53.334;6.744;2022-12-07T10:24:04;101466.53;;;11.74;100.00
57656;BME280;43482;53.334;6.744;2022-12-07T10:31:38;101464.34;;;11.31;100.00
57656;BME280;43482;53.334;6.744;2022-12-07T10:34:22;101436.25;;;11.01;100.00
57656;BME280;43482;53.334;6.744;2022-12-07T10:36:50;101442.38;;;10.91;100.00
57656;BME280;43482;53.334;6.744;2022-12-07T10:39:21;101456.81;;;10.87;100.00
57656;BME280;43482;53.334;6.744;2022-12-07T10:41:58;101443.16;;;10.63;100.00
57656;BME280;43482;53.334;6.744;2022-12-07T10:44:28;101454.56;;;10.63;100.00
57656;BME280;43482;53.334;6.744;2022-12-07T10:47:07;101452.03;;;10.62;100.00
57656;BME280;43482;53.334;6.744;2022-12-07T10:55:53;101426.44;;;9.81;100.00
57656;BME280;43482;53.334;6.744;2022-12-07T11:01:54;101432.84;;;9.88;100.00
57656;BME280;43482;53.334;6.744;2022-12-07T11:04:38;101417.81;;;9.79;100.00
57656;BME280;43482;53.334;6.744;2022-12-07T11:10:10;101405.38;;;9.39;100.00
57656;BME280;43482;53.334;6.744;2022-12-07T11:18:22;101403.50;;;9.09;100.00
57656;BME280;43482;53.334;6.744;2022-12-07T11:20:54;101404.31;;;8.89;100.00
57656;BME280;43482;53.334;6.744;2022-12-07T11:26:08;101392.75;;;8.80;100.00
57656;BME280;43482;53.334;6.744;2022-12-07T11:31:13;101362.47;;;8.74;100.00
57656;BME280;43482;53.334;6.744;2022-12-07T11:33:53;101377.34;;;8.96;100.00
57656;BME280;43482;53.334;6.744;2022-12-07T11:39:43;101330.38;;;9.13;100.00
57656;BME280;43482;53.334;6.744;2022-12-07T11:53:01;101364.59;;;8.37;100.00
57656;BME280;43482;53.334;6.744;2022-12-07T11:55:47;101363.91;;;8.23;100.00
57656;BME280;43482;53.334;6.744;2022-12-07T11:58:57;101354.59;;;8.19;100.00
57656;BME280;43482;53.334;6.744;2022-12-07T12:06:35;101348.63;;;8.06;100.00
57656;BME280;43482;53.334;6.744;2022-12-07T12:09:09;101347.31;;;7.89;100.00
57656;BME280;43482;53.334;6.744;2022-12-07T12:12:06;101352.69;;;7.88;100.00
57656;BME280;43482;53.334;6.744;2022-12-07T12:20:43;101313.19;;;7.78;100.00
57656;BME280;43482;53.334;6.744;2022-12-07T12:23:20;101332.63;;;7.87;100.00
57656;BME280;43482;53.334;6.744;2022-12-07T12:26:00;101332.88;;;7.95;100.00
57656;BME280;43482;53.334;6.744;2022-12-07T12:28:41;101301.81;;;7.66;100.00
57656;BME280;43482;53.334;6.744;2022-12-07T12:31:31;101326.53;;;7.97;100.00
57656;BME280;43482;53.334;6.744;2022-12-07T12:34:00;101312.56;;;7.86;100.00
57656;BME280;43482;53.334;6.744;2022-12-07T12:47:04;101312.53;;;7.97;100.00
57656;BME280;43482;53.334;6.744;2022-12-07T12:49:42;101308.84;;;7.99;100.00
57656;BME280;43482;53.334;6.744;2022-12-07T12:54:39;101268.88;;;7.73;100.00
57656;BME280;43482;53.334;6.744;2022-12-07T12:57:27;101293.44;;;7.83;100.00
57656;BME280;43482;53.334;6.744;2022-12-07T13:13:28;101270.19;;;7.34;100.00
57656;BME280;43482;53.334;6.744;2022-12-07T13:18:39;101271.50;;;7.28;100.00
57656;BME280;43482;53.334;6.744;2022-12-07T13:26:35;101303.59;;;6.74;100.00
57656;BME280;43482;53.334;6.744;2022-12-07T13:29:11;101304.44;;;6.50;100.00
57656;BME280;43482;53.334;6.744;2022-12-07T13:31:45;101281.94;;;6.59;100.00
57656;BME280;43482;53.334;6.744;2022-12-07T13:34:34;101258.19;;;6.49;100.00
57656;BME280;43482;53.334;6.744;2022-12-07T13:37:27;101282.47;;;6.64;100.00
57656;BME280;43482;53.334;6.744;2022-12-07T13:39:55;101275.16;;;6.56;100.00
57656;BME280;43482;53.334;6.744;2022-12-07T13:42:32;101285.41;;;6.59;100.00
57656;BME280;43482;53.334;6.744;2022-12-07T13:45:00;101278.66;;;6.44;100.00
57656;BME280;43482;53.334;6.744;2022-12-07T13:47:34;101252.97;;;6.25;100.00
57656;BME280;43482;53.334;6.744;2022-12-07T13:50:24;101280.91;;;6.37;100.00
57656;BME280;43482;53.334;6.744;2022-12-07T13:52:55;101283.31;;;6.41;100.00
57656;BME280;43482;53.334;6.744;2022-12-07T13:55:21;101264.28;;;6.26;100.00
57656;BME280;43482;53.334;6.744;2022-12-07T13:57:50;101249.56;;;6.12;100.00
57656;BME280;43482;53.334;6.744;2022-12-07T14:00:19;101280.84;;;6.26;100.00
57656;BME280;43482;53.334;6.744;2022-12-07T14:03:02;101266.97;;;6.13;100.00
57656;BME280;43482;53.334;6.744;2022-12-07T14:05:33;101251.63;;;5.95;100.00
57656;BME280;43482;53.334;6.744;2022-12-07T14:08:01;101260.09;;;5.99;100.00
57656;BME280;43482;53.334;6.744;2022-12-07T14:10:29;101275.25;;;5.94;100.00
57656;BME280;43482;53.334;6.744;2022-12-07T14:12:56;101222.13;;;5.55;100.00
57656;BME280;43482;53.334;6.744;2022-12-07T14:15:28;101264.22;;;5.77;100.00
57656;BME280;43482;53.334;6.744;2022-12-07T14:17:55;101254.50;;;5.67;100.00
57656;BME280;43482;53.334;6.744;2022-12-07T14:22:55;101267.69;;;5.65;100.00
57656;BME280;43482;53.334;6.744;2022-12-07T14:25:23;101239.22;;;5.48;100.00
57656;BME280;43482;53.334;6.744;2022-12-07T14:27:51;101257.44;;;5.62;100.00
57656;BME280;43482;53.334;6.744;2022-12-07T14:30:18;101245.94;;;5.52;100.00
57656;BME280;43482;53.334;6.744;2022-12-07T14:32:44;101242.28;;;5.42;100.00
57656;BME280;43482;53.334;6.744;2022-12-07T14:35:15;101257.06;;;5.43;100.00
57656;BME280;43482;53.334;6.744;2022-12-07T14:37:43;101263.94;;;5.44;100.00
57656;BME280;43482;53.334;6.744;2022-12-07T14:40:13;101233.69;;;5.27;100.00
57656;BME280;43482;53.334;6.744;2022-12-07T14:42:39;101242.59;;;5.24;100.00
57656;BME280;43482;53.334;6.744;2022-12-07T14:45:06;101250.78;;;5.20;100.00
57656;BME280;43482;53.334;6.744;2022-12-07T14:47:31;101242.72;;;5.10;100.00
57656;BME280;43482;53.334;6.744;2022-12-07T14:49:57;101261.56;;;5.15;100.00
57656;BME280;43482;53.334;6.744;2022-12-07T14:52:28;101250.16;;;5.03;100.00
57656;BME280;43482;53.334;6.744;2022-12-07T14:54:55;101268.56;;;5.02;100.00
57656;BME280;43482;53.334;6.744;2022-12-07T14:57:21;101209.94;;;4.66;100.00
57656;BME280;43482;53.334;6.744;2022-12-07T14:59:46;101278.28;;;5.00;100.00
57656;BME280;43482;53.334;6.744;2022-12-07T15:02:13;101291.38;;;5.00;100.00
57656;BME280;43482;53.334;6.744;2022-12-07T15:04:39;101290.09;;;4.80;100.00
57656;BME280;43482;53.334;6.744;2022-12-07T15:07:10;101263.91;;;4.67;100.00
57656;BME280;43482;53.334;6.744;2022-12-07T15:09:38;101258.34;;;4.59;100.00
57656;BME280;43482;53.334;6.744;2022-12-07T15:12:03;101227.06;;;4.44;100.00
57656;BME280;43482;53.334;6.744;2022-12-07T15:14:29;101255.94;;;4.56;100.00
57656;BME280;43482;53.334;6.744;2022-12-07T15:16:54;101247.56;;;4.50;100.00